sensor_id;sensor_type;location;lat;lon;timestamp;P1;durP1;ratioP1;P2;durP2;ratioP2
4672;SDS011;61885;53.560;9.940;2023-02-18T00:00:08;0.60;;;0.30;;
4672;SDS011;61885;53.560;9.940;2023-02-18T00:02:42;0.60;;;0.30;;
4672;SDS011;61885;53.560;9.940;2023-02-18T00:05:12;0.60;;;0.30;;
4672;SDS011;61885;53.560;9.940;2023-02-18T00:07:42;0.60;;;0.30;;
4672;SDS011;61885;53.560;9.940;2023-02-18T00:10:16;0.60;;;0.30;;
4672;SDS011;61885;53.560;9.940;2023-02-18T00:12:46;0.60;;;0.30;;
4672;SDS011;61885;53.560;9.940;2023-02-18T00:15:15;0.60;;;0.30;;
4672;SDS011;61885;53.560;9.940;2023-02-18T00:17:46;0.60;;;0.30;;
4672;SDS011;61885;53.560;9.940;2023-02-18T00:20:16;0.70;;;0.50;;
4672;SDS011;61885;53.560;9.940;2023-02-18T00:22:46;0.60;;;0.30;;
4672;SDS011;61885;53.560;9.940;2023-02-18T00:25:19;0.60;;;0.30;;
4672;SDS011;61885;53.560;9.940;2023-02-18T00:27:49;0.60;;;0.20;;
4672;SDS011;61885;53.560;9.940;2023-02-18T00:30:19;0.60;;;0.30;;
4672;SDS011;61885;53.560;9.940;2023-02-18T00:32:50;0.70;;;0.40;;
4672;SDS011;61885;53.560;9.940;2023-02-18T00:35:19;0.60;;;0.30;;
4672;SDS011;61885;53.560;9.940;2023-02-18T00:37:50;0.70;;;0.43;;
4672;SDS011;61885;53.560;9.940;2023-02-18T00:40:23;0.60;;;0.30;;
4672;SDS011;61885;53.560;9.940;2023-02-18T00:42:52;0.60;;;0.30;;
4672;SDS011;61885;53.560;9.940;2023-02-18T00:45:22;0.70;;;0.40;;
4672;SDS011;61885;53.560;9.940;2023-02-18T00:47:51;0.60;;;0.30;;
4672;SDS011;61885;53.560;9.940;2023-02-18T00:50:21;0.60;;;0.30;;
4672;SDS011;61885;53.560;9.940;2023-02-18T00:52:51;0.60;;;0.30;;
4672;SDS011;61885;53.560;9.940;2023-02-18T00:55:23;2.80;;;0.30;;
4672;SDS011;61885;53.560;9.940;2023-02-18T00:57:54;1.00;;;0.90;;
4672;SDS011;61885;53.560;9.940;2023-02-18T01:00:24;0.60;;;0.30;;
4672;SDS011;61885;53.560;9.940;2023-02-18T01:02:54;0.70;;;0.40;;
4672;SDS011;61885;53.560;9.940;2023-02-18T01:05:23;0.60;;;0.30;;
4672;SDS011;61885;53.560;9.940;2023-02-18T01:07:56;0.60;;;0.30;;
4672;SDS011;61885;53.560;9.940;2023-02-18T01:10:29;0.60;;;0.30;;
4672;SDS011;61885;53.560;9.940;2023-02-18T01:12:59;0.60;;;0.30;;
4672;SDS011;61885;53.560;9.940;2023-02-18T01:15:30;0.70;;;0.43;;
4672;SDS011;61885;53.560;9.940;2023-02-18T01:18:00;0.60;;;0.30;;
4672;SDS011;61885;53.560;9.940;2023-02-18T01:20:30;0.70;;;0.40;;
4672;SDS011;61885;53.560;9.940;2023-02-18T01:22:59;0.60;;;0.30;;
4672;SDS011;61885;53.560;9.940;2023-02-18T01:25:32;0.60;;;0.30;;
4672;SDS011;61885;53.560;9.940;2023-02-18T01:28:03;0.60;;;0.30;;
4672;SDS011;61885;53.560;9.940;2023-02-18T01:30:33;0.60;;;0.30;;
4672;SDS011;61885;53.560;9.940;2023-02-18T01:33:03;0.60;;;0.30;;
4672;SDS011;61885;53.560;9.940;2023-02-18T01:35:33;4.60;;;0.70;;
4672;SDS011;61885;53.560;9.940;2023-02-18T01:38:05;0.60;;;0.30;;
4672;SDS011;61885;53.560;9.940;2023-02-18T01:40:43;0.60;;;0.30;;
4672;SDS011;61885;53.560;9.940;2023-02-18T01:43:14;0.83;;;0.70;;
4672;SDS011;61885;53.560;9.940;2023-02-18T01:45:51;0.60;;;0.30;;
4672;SDS011;61885;53.560;9.940;2023-02-18T01:48:31;0.60;;;0.30;;
4672;SDS011;61885;53.560;9.940;2023-02-18T01:51:08;0.60;;;0.30;;
4672;SDS011;61885;53.560;9.940;2023-02-18T01:53:43;0.60;;;0.30;;
4672;SDS011;61885;53.560;9.940;2023-02-18T01:56:25;0.60;;;0.30;;
4672;SDS011;61885;53.560;9.940;2023-02-18T01:58:57;0.60;;;0.30;;
4672;SDS011;61885;53.560;9.940;2023-02-18T02:01:30;0.60;;;0.30;;
4672;SDS011;61885;53.560;9.940;2023-02-18T02:04:01;0.60;;;0.30;;
4672;SDS011;61885;53.560;9.940;2023-02-18T02:06:31;0.60;;;0.30;;
4672;SDS011;61885;53.560;9.940;2023-02-18T02:09:02;0.60;;;0.30;;
4672;SDS011;61885;53.560;9.940;2023-02-18T02:17:51;0.60;;;0.30;;
4672;SDS011;61885;53.560;9.940;2023-02-18T02:20:41;0.60;;;0.30;;
4672;SDS011;61885;53.560;9.940;2023-02-18T02:27:03;0.60;;;0.30;;
4672;SDS011;61885;53.560;9.940;2023-02-18T02:33:15;0.60;;;0.30;;
4672;SDS011;61885;53.560;9.940;2023-02-18T02:36:10;0.60;;;0.30;;
4672;SDS011;61885;53.560;9.940;2023-02-18T02:38:45;2.00;;;0.77;;
4672;SDS011;61885;53.560;9.940;2023-02-18T02:41:27;0.60;;;0.30;;
4672;SDS011;61885;53.560;9.940;2023-02-18T02:44:09;0.60;;;0.30;;
4672;SDS011;61885;53.560;9.940;2023-02-18T02:46:47;0.60;;;0.30;;
4672;SDS011;61885;53.560;9.940;2023-02-18T02:49:25;0.60;;;0.30;;
4672;SDS011;61885;53.560;9.940;2023-02-18T02:52:05;0.60;;;0.30;;
4672;SDS011;61885;53.560;9.940;2023-02-18T02:54:39;0.60;;;0.30;;
4672;SDS011;61885;53.560;9.940;2023-02-18T03:00:16;0.60;;;0.30;;
4672;SDS011;61885;53.560;9.940;2023-02-18T03:03:00;0.60;;;0.30;;
4672;SDS011;61885;53.560;9.940;2023-02-18T03:09:08;0.60;;;0.30;;
4672;SDS011;61885;53.560;9.940;2023-02-18T03:11:49;0.60;;;0.30;;
4672;SDS011;61885;53.560;9.940;2023-02-18T03:14:31;0.60;;;0.30;;
4672;SDS011;61885;53.560;9.940;2023-02-18T03:17:08;0.60;;;0.30;;
4672;SDS011;61885;53.560;9.940;2023-02-18T03:19:44;7.03;;;0.87;;
4672;SDS011;61885;53.560;9.940;2023-02-18T03:22:22;2.30;;;0.30;;
4672;SDS011;61885;53.560;9.940;2023-02-18T03:25:00;0.60;;;0.30;;
4672;SDS011;61885;53.560;9.940;2023-02-18T03:27:31;0.60;;;0.30;;
4672;SDS011;61885;53.560;9.940;2023-02-18T03:30:05;0.60;;;0.30;;
4672;SDS011;61885;53.560;9.940;2023-02-18T03:32:42;0.60;;;0.30;;
4672;SDS011;61885;53.560;9.940;2023-02-18T03:35:16;0.60;;;0.30;;
4672;SDS011;61885;53.560;9.940;2023-02-18T03:37:47;0.60;;;0.30;;
4672;SDS011;61885;53.560;9.940;2023-02-18T03:40:28;0.60;;;0.30;;
4672;SDS011;61885;53.560;9.940;2023-02-18T03:42:59;0.60;;;0.30;;
4672;SDS011;61885;53.560;9.940;2023-02-18T03:45:28;0.60;;;0.30;;
4672;SDS011;61885;53.560;9.940;2023-02-18T03:47:58;0.60;;;0.30;;
4672;SDS011;61885;53.560;9.940;2023-02-18T03:50:28;3.43;;;1.90;;
4672;SDS011;61885;53.560;9.940;2023-02-18T03:52:57;0.60;;;0.30;;
4672;SDS011;61885;53.560;9.940;2023-02-18T03:55:30;0.60;;;0.30;;
4672;SDS011;61885;53.560;9.940;2023-02-18T03:58:00;0.60;;;0.30;;
4672;SDS011;61885;53.560;9.940;2023-02-18T04:00:29;0.60;;;0.30;;
4672;SDS011;61885;53.560;9.940;2023-02-18T04:02:59;0.60;;;0.30;;
4672;SDS011;61885;53.560;9.940;2023-02-18T04:05:30;0.60;;;0.40;;
4672;SDS011;61885;53.560;9.940;2023-02-18T04:07:59;0.60;;;0.40;;
4672;SDS011;61885;53.560;9.940;2023-02-18T04:10:31;14.13;;;0.63;;
4672;SDS011;61885;53.560;9.940;2023-02-18T04:13:01;0.60;;;0.30;;
4672;SDS011;61885;53.560;9.940;2023-02-18T04:15:31;0.60;;;0.30;;
4672;SDS011;61885;53.560;9.940;2023-02-18T04:18:02;0.70;;;0.57;;
4672;SDS011;61885;53.560;9.940;2023-02-18T04:20:32;0.60;;;0.30;;
4672;SDS011;61885;53.560;9.940;2023-02-18T04:23:02;0.70;;;0.30;;
4672;SDS011;61885;53.560;9.940;2023-02-18T04:25:35;0.60;;;0.30;;
4672;SDS011;61885;53.560;9.940;2023-02-18T04:28:05;0.60;;;0.30;;
4672;SDS011;61885;53.560;9.940;2023-02-18T04:30:38;0.60;;;0.20;;
4672;SDS011;61885;53.560;9.940;2023-02-18T04:33:07;0.60;;;0.40;;
4672;SDS011;61885;53.560;9.940;2023-02-18T04:35:37;0.60;;;0.20;;
4672;SDS011;61885;53.560;9.940;2023-02-18T04:38:08;0.60;;;0.30;;
4672;SDS011;61885;53.560;9.940;2023-02-18T04:40:40;0.60;;;0.30;;
4672;SDS011;61885;53.560;9.940;2023-02-18T04:43:15;0.60;;;0.30;;
4672;SDS011;61885;53.560;9.940;2023-02-18T04:45:45;0.60;;;0.30;;
4672;SDS011;61885;53.560;9.940;2023-02-18T04:48:15;0.60;;;0.30;;
4672;SDS011;61885;53.560;9.940;2023-02-18T04:50:47;0.60;;;0.30;;
4672;SDS011;61885;53.560;9.940;2023-02-18T04:53:17;0.60;;;0.30;;
4672;SDS011;61885;53.560;9.940;2023-02-18T04:55:55;0.60;;;0.30;;
4672;SDS011;61885;53.560;9.940;2023-02-18T04:58:27;0.60;;;0.30;;
4672;SDS011;61885;53.560;9.940;2023-02-18T05:00:58;0.60;;;0.30;;
4672;SDS011;61885;53.560;9.940;2023-02-18T05:03:28;0.60;;;0.30;;
4672;SDS011;61885;53.560;9.940;2023-02-18T05:05:59;0.60;;;0.30;;
4672;SDS011;61885;53.560;9.940;2023-02-18T05:08:28;0.60;;;0.30;;
4672;SDS011;61885;53.560;9.940;2023-02-18T05:11:00;0.60;;;0.20;;
4672;SDS011;61885;53.560;9.940;2023-02-18T05:13:34;0.60;;;0.30;;
4672;SDS011;61885;53.560;9.940;2023-02-18T05:16:03;0.60;;;0.30;;
4672;SDS011;61885;53.560;9.940;2023-02-18T05:18:33;0.60;;;0.30;;
4672;SDS011;61885;53.560;9.940;2023-02-18T05:21:03;0.60;;;0.30;;
4672;SDS011;61885;53.560;9.940;2023-02-18T05:23:33;0.60;;;0.30;;
4672;SDS011;61885;53.560;9.940;2023-02-18T05:26:06;0.60;;;0.30;;
4672;SDS011;61885;53.560;9.940;2023-02-18T05:28:36;0.60;;;0.30;;
4672;SDS011;61885;53.560;9.940;2023-02-18T05:31:05;3.30;;;0.33;;
4672;SDS011;61885;53.560;9.940;2023-02-18T05:33:35;0.60;;;0.30;;
4672;SDS011;61885;53.560;9.940;2023-02-18T05:36:06;0.60;;;0.30;;
4672;SDS011;61885;53.560;9.940;2023-02-18T05:38:36;0.60;;;0.30;;
4672;SDS011;61885;53.560;9.940;2023-02-18T05:41:08;0.60;;;0.30;;
4672;SDS011;61885;53.560;9.940;2023-02-18T05:43:38;0.60;;;0.30;;
4672;SDS011;61885;53.560;9.940;2023-02-18T05:46:20;0.60;;;0.27;;
4672;SDS011;61885;53.560;9.940;2023-02-18T05:48:50;0.60;;;0.30;;
4672;SDS011;61885;53.560;9.940;2023-02-18T05:51:21;0.60;;;0.30;;
4672;SDS011;61885;53.560;9.940;2023-02-18T05:53:51;0.60;;;0.30;;
4672;SDS011;61885;53.560;9.940;2023-02-18T05:56:26;0.60;;;0.30;;
4672;SDS011;61885;53.560;9.940;2023-02-18T05:58:55;0.60;;;0.30;;
4672;SDS011;61885;53.560;9.940;2023-02-18T06:01:30;1.27;;;0.30;;
4672;SDS011;61885;53.560;9.940;2023-02-18T06:04:02;0.60;;;0.30;;
4672;SDS011;61885;53.560;9.940;2023-02-18T06:06:33;0.60;;;0.30;;
4672;SDS011;61885;53.560;9.940;2023-02-18T06:09:04;0.60;;;0.30;;
4672;SDS011;61885;53.560;9.940;2023-02-18T06:11:37;0.60;;;0.30;;
4672;SDS011;61885;53.560;9.940;2023-02-18T06:14:07;0.60;;;0.20;;
4672;SDS011;61885;53.560;9.940;2023-02-18T06:16:39;0.60;;;0.30;;
4672;SDS011;61885;53.560;9.940;2023-02-18T06:19:11;0.60;;;0.30;;
4672;SDS011;61885;53.560;9.940;2023-02-18T06:21:41;0.60;;;0.30;;
4672;SDS011;61885;53.560;9.940;2023-02-18T06:24:10;0.60;;;0.30;;
4672;SDS011;61885;53.560;9.940;2023-02-18T06:26:43;0.60;;;0.30;;
4672;SDS011;61885;53.560;9.940;2023-02-18T06:29:13;0.60;;;0.30;;
4672;SDS011;61885;53.560;9.940;2023-02-18T06:31:43;0.60;;;0.30;;
4672;SDS011;61885;53.560;9.940;2023-02-18T06:34:13;0.60;;;0.30;;
4672;SDS011;61885;53.560;9.940;2023-02-18T06:36:43;0.60;;;0.30;;
4672;SDS011;61885;53.560;9.940;2023-02-18T06:39:14;0.60;;;0.30;;
4672;SDS011;61885;53.560;9.940;2023-02-18T06:41:47;0.60;;;0.30;;
4672;SDS011;61885;53.560;9.940;2023-02-18T06:44:17;0.60;;;0.20;;
4672;SDS011;61885;53.560;9.940;2023-02-18T06:46:48;0.60;;;0.30;;
4672;SDS011;61885;53.560;9.940;2023-02-18T06:49:18;0.60;;;0.30;;
4672;SDS011;61885;53.560;9.940;2023-02-18T06:51:47;0.60;;;0.30;;
4672;SDS011;61885;53.560;9.940;2023-02-18T06:54:17;0.60;;;0.30;;
4672;SDS011;61885;53.560;9.940;2023-02-18T06:56:49;0.60;;;0.30;;
4672;SDS011;61885;53.560;9.940;2023-02-18T06:59:20;0.60;;;0.30;;
4672;SDS011;61885;53.560;9.940;2023-02-18T07:01:51;0.60;;;0.30;;
4672;SDS011;61885;53.560;9.940;2023-02-18T07:04:21;0.60;;;0.30;;
4672;SDS011;61885;53.560;9.940;2023-02-18T07:06:51;0.60;;;0.30;;
4672;SDS011;61885;53.560;9.940;2023-02-18T07:09:21;0.60;;;0.30;;
4672;SDS011;61885;53.560;9.940;2023-02-18T07:11:53;0.60;;;0.30;;
4672;SDS011;61885;53.560;9.940;2023-02-18T07:14:22;0.60;;;0.30;;
4672;SDS011;61885;53.560;9.940;2023-02-18T07:16:53;0.60;;;0.30;;
4672;SDS011;61885;53.560;9.940;2023-02-18T07:19:24;0.60;;;0.30;;
4672;SDS011;61885;53.560;9.940;2023-02-18T07:21:54;0.60;;;0.30;;
4672;SDS011;61885;53.560;9.940;2023-02-18T07:24:24;0.60;;;0.20;;
4672;SDS011;61885;53.560;9.940;2023-02-18T07:26:57;0.60;;;0.27;;
4672;SDS011;61885;53.560;9.940;2023-02-18T07:29:28;0.60;;;0.30;;
4672;SDS011;61885;53.560;9.940;2023-02-18T07:31:58;0.60;;;0.27;;
4672;SDS011;61885;53.560;9.940;2023-02-18T07:34:30;0.60;;;0.30;;
4672;SDS011;61885;53.560;9.940;2023-02-18T07:37:00;0.60;;;0.30;;
4672;SDS011;61885;53.560;9.940;2023-02-18T07:39:34;0.60;;;0.30;;
4672;SDS011;61885;53.560;9.940;2023-02-18T07:42:09;0.60;;;0.30;;
4672;SDS011;61885;53.560;9.940;2023-02-18T07:44:39;0.60;;;0.30;;
4672;SDS011;61885;53.560;9.940;2023-02-18T07:47:09;0.60;;;0.20;;
4672;SDS011;61885;53.560;9.940;2023-02-18T07:49:46;0.60;;;0.30;;
4672;SDS011;61885;53.560;9.940;2023-02-18T07:52:15;0.60;;;0.30;;
4672;SDS011;61885;53.560;9.940;2023-02-18T07:54:45;0.60;;;0.30;;
4672;SDS011;61885;53.560;9.940;2023-02-18T07:57:19;0.60;;;0.30;;
4672;SDS011;61885;53.560;9.940;2023-02-18T07:59:49;0.60;;;0.30;;
4672;SDS011;61885;53.560;9.940;2023-02-18T08:02:21;0.60;;;0.23;;
4672;SDS011;61885;53.560;9.940;2023-02-18T08:04:52;0.60;;;0.30;;
4672;SDS011;61885;53.560;9.940;2023-02-18T08:07:22;0.60;;;0.30;;
4672;SDS011;61885;53.560;9.940;2023-02-18T08:09:58;0.60;;;0.30;;
4672;SDS011;61885;53.560;9.940;2023-02-18T08:12:32;0.60;;;0.30;;
4672;SDS011;61885;53.560;9.940;2023-02-18T08:15:06;0.60;;;0.30;;
4672;SDS011;61885;53.560;9.940;2023-02-18T08:17:40;0.60;;;0.30;;
4672;SDS011;61885;53.560;9.940;2023-02-18T08:20:10;0.60;;;0.30;;
4672;SDS011;61885;53.560;9.940;2023-02-18T08:22:42;0.60;;;0.30;;
4672;SDS011;61885;53.560;9.940;2023-02-18T08:25:13;0.60;;;0.30;;
4672;SDS011;61885;53.560;9.940;2023-02-18T08:27:48;0.60;;;0.30;;
4672;SDS011;61885;53.560;9.940;2023-02-18T08:30:18;1.17;;;0.83;;
4672;SDS011;61885;53.560;9.940;2023-02-18T08:32:48;0.60;;;0.30;;
4672;SDS011;61885;53.560;9.940;2023-02-18T08:35:18;0.60;;;0.30;;
4672;SDS011;61885;53.560;9.940;2023-02-18T08:37:48;0.60;;;0.30;;
4672;SDS011;61885;53.560;9.940;2023-02-18T08:40:19;0.60;;;0.30;;
4672;SDS011;61885;53.560;9.940;2023-02-18T08:42:54;1.47;;;0.83;;
4672;SDS011;61885;53.560;9.940;2023-02-18T08:45:25;2.50;;;1.10;;
4672;SDS011;61885;53.560;9.940;2023-02-18T08:47:55;4.10;;;1.27;;
4672;SDS011;61885;53.560;9.940;2023-02-18T08:50:26;3.70;;;1.53;;
4672;SDS011;61885;53.560;9.940;2023-02-18T08:52:56;7.40;;;1.03;;
4672;SDS011;61885;53.560;9.940;2023-02-18T08:55:28;1.60;;;1.00;;
4672;SDS011;61885;53.560;9.940;2023-02-18T08:58:10;7.10;;;1.70;;
4672;SDS011;61885;53.560;9.940;2023-02-18T09:00:42;2.80;;;1.50;;
4672;SDS011;61885;53.560;9.940;2023-02-18T09:03:15;3.47;;;1.83;;
4672;SDS011;61885;53.560;9.940;2023-02-18T09:05:45;4.23;;;1.57;;
4672;SDS011;61885;53.560;9.940;2023-02-18T09:08:23;3.50;;;1.80;;
4672;SDS011;61885;53.560;9.940;2023-02-18T09:10:53;8.77;;;2.00;;
4672;SDS011;61885;53.560;9.940;2023-02-18T09:13:27;9.13;;;3.10;;
4672;SDS011;61885;53.560;9.940;2023-02-18T09:15:57;4.93;;;2.30;;
4672;SDS011;61885;53.560;9.940;2023-02-18T09:18:28;16.33;;;3.40;;
4672;SDS011;61885;53.560;9.940;2023-02-18T09:20:59;9.30;;;2.20;;
4672;SDS011;61885;53.560;9.940;2023-02-18T09:23:29;2.30;;;2.07;;
4672;SDS011;61885;53.560;9.940;2023-02-18T09:26:05;6.23;;;3.30;;
4672;SDS011;61885;53.560;9.940;2023-02-18T09:28:38;21.03;;;3.70;;
4672;SDS011;61885;53.560;9.940;2023-02-18T09:31:09;6.60;;;2.70;;
4672;SDS011;61885;53.560;9.940;2023-02-18T09:33:41;3.67;;;3.00;;
4672;SDS011;61885;53.560;9.940;2023-02-18T09:36:19;3.40;;;2.53;;
4672;SDS011;61885;53.560;9.940;2023-02-18T09:38:52;2.60;;;2.37;;
4672;SDS011;61885;53.560;9.940;2023-02-18T09:41:29;6.23;;;2.33;;
4672;SDS011;61885;53.560;9.940;2023-02-18T09:44:08;3.37;;;2.60;;
4672;SDS011;61885;53.560;9.940;2023-02-18T09:46:45;3.23;;;2.37;;
4672;SDS011;61885;53.560;9.940;2023-02-18T09:49:20;4.23;;;2.70;;
4672;SDS011;61885;53.560;9.940;2023-02-18T09:51:54;4.00;;;3.00;;
4672;SDS011;61885;53.560;9.940;2023-02-18T09:54:35;3.60;;;2.60;;
4672;SDS011;61885;53.560;9.940;2023-02-18T09:57:14;2.60;;;1.93;;
4672;SDS011;61885;53.560;9.940;2023-02-18T10:00:00;8.50;;;2.70;;
4672;SDS011;61885;53.560;9.940;2023-02-18T10:02:34;3.00;;;2.70;;
4672;SDS011;61885;53.560;9.940;2023-02-18T10:05:09;6.40;;;2.60;;
4672;SDS011;61885;53.560;9.940;2023-02-18T10:07:44;5.70;;;2.87;;
4672;SDS011;61885;53.560;9.940;2023-02-18T10:10:24;7.57;;;3.50;;
4672;SDS011;61885;53.560;9.940;2023-02-18T10:13:06;4.60;;;2.60;;
4672;SDS011;61885;53.560;9.940;2023-02-18T10:15:48;4.20;;;3.80;;
4672;SDS011;61885;53.560;9.940;2023-02-18T10:18:25;2.60;;;2.30;;
4672;SDS011;61885;53.560;9.940;2023-02-18T10:21:00;3.30;;;2.90;;
4672;SDS011;61885;53.560;9.940;2023-02-18T10:23:35;6.10;;;3.20;;
4672;SDS011;61885;53.560;9.940;2023-02-18T10:26:09;4.50;;;2.40;;
4672;SDS011;61885;53.560;9.940;2023-02-18T10:28:51;2.37;;;2.17;;
4672;SDS011;61885;53.560;9.940;2023-02-18T10:31:29;3.63;;;2.83;;
4672;SDS011;61885;53.560;9.940;2023-02-18T10:34:04;5.37;;;3.20;;
4672;SDS011;61885;53.560;9.940;2023-02-18T10:36:44;3.23;;;2.93;;
4672;SDS011;61885;53.560;9.940;2023-02-18T10:39:24;4.90;;;3.90;;
4672;SDS011;61885;53.560;9.940;2023-02-18T10:42:18;3.83;;;2.40;;
4672;SDS011;61885;53.560;9.940;2023-02-18T10:44:59;3.97;;;2.87;;
4672;SDS011;61885;53.560;9.940;2023-02-18T10:50:36;3.20;;;2.90;;
4672;SDS011;61885;53.560;9.940;2023-02-18T10:53:15;3.07;;;2.77;;
4672;SDS011;61885;53.560;9.940;2023-02-18T10:55:50;4.33;;;3.00;;
4672;SDS011;61885;53.560;9.940;2023-02-18T10:58:29;3.00;;;2.70;;
4672;SDS011;61885;53.560;9.940;2023-02-18T11:01:12;4.43;;;3.00;;
4672;SDS011;61885;53.560;9.940;2023-02-18T11:03:47;6.20;;;3.10;;
4672;SDS011;61885;53.560;9.940;2023-02-18T11:06:20;5.20;;;2.93;;
4672;SDS011;61885;53.560;9.940;2023-02-18T11:08:55;3.10;;;2.27;;
4672;SDS011;61885;53.560;9.940;2023-02-18T11:11:29;2.37;;;2.17;;
4672;SDS011;61885;53.560;9.940;2023-02-18T11:14:02;2.50;;;2.30;;
4672;SDS011;61885;53.560;9.940;2023-02-18T11:16:37;3.00;;;2.00;;
4672;SDS011;61885;53.560;9.940;2023-02-18T11:22:07;3.77;;;2.57;;
4672;SDS011;61885;53.560;9.940;2023-02-18T11:24:43;5.33;;;2.37;;
4672;SDS011;61885;53.560;9.940;2023-02-18T11:27:16;3.20;;;2.03;;
4672;SDS011;61885;53.560;9.940;2023-02-18T11:29:51;2.70;;;2.33;;
4672;SDS011;61885;53.560;9.940;2023-02-18T11:32:25;2.43;;;1.40;;
4672;SDS011;61885;53.560;9.940;2023-02-18T11:34:58;7.80;;;1.50;;
4672;SDS011;61885;53.560;9.940;2023-02-18T11:37:36;1.60;;;1.50;;
4672;SDS011;61885;53.560;9.940;2023-02-18T11:40:18;1.10;;;1.00;;
4672;SDS011;61885;53.560;9.940;2023-02-18T11:43:10;1.20;;;1.10;;
4672;SDS011;61885;53.560;9.940;2023-02-18T11:45:45;2.97;;;1.13;;
4672;SDS011;61885;53.560;9.940;2023-02-18T11:48:16;0.90;;;0.60;;
4672;SDS011;61885;53.560;9.940;2023-02-18T11:50:51;1.60;;;0.73;;
4672;SDS011;61885;53.560;9.940;2023-02-18T11:53:30;0.80;;;0.50;;
4672;SDS011;61885;53.560;9.940;2023-02-18T11:56:05;0.70;;;0.50;;
4672;SDS011;61885;53.560;9.940;2023-02-18T11:58:45;0.80;;;0.50;;
4672;SDS011;61885;53.560;9.940;2023-02-18T12:01:19;1.33;;;0.53;;
4672;SDS011;61885;53.560;9.940;2023-02-18T12:03:58;1.20;;;0.67;;
4672;SDS011;61885;53.560;9.940;2023-02-18T12:06:37;0.70;;;0.57;;
4672;SDS011;61885;53.560;9.940;2023-02-18T12:09:14;0.70;;;0.43;;
4672;SDS011;61885;53.560;9.940;2023-02-18T12:11:53;0.70;;;0.50;;
4672;SDS011;61885;53.560;9.940;2023-02-18T12:14:29;1.30;;;0.80;;
4672;SDS011;61885;53.560;9.940;2023-02-18T12:17:11;0.80;;;0.63;;
4672;SDS011;61885;53.560;9.940;2023-02-18T12:19:53;0.70;;;0.50;;
4672;SDS011;61885;53.560;9.940;2023-02-18T12:22:40;2.50;;;0.60;;
4672;SDS011;61885;53.560;9.940;2023-02-18T12:25:24;2.97;;;0.87;;
4672;SDS011;61885;53.560;9.940;2023-02-18T12:28:08;2.30;;;0.50;;
4672;SDS011;61885;53.560;9.940;2023-02-18T12:30:59;1.00;;;0.90;;
4672;SDS011;61885;53.560;9.940;2023-02-18T12:33:48;0.90;;;0.60;;
4672;SDS011;61885;53.560;9.940;2023-02-18T12:36:29;0.80;;;0.67;;
4672;SDS011;61885;53.560;9.940;2023-02-18T12:39:19;2.67;;;0.73;;
4672;SDS011;61885;53.560;9.940;2023-02-18T12:42:10;2.13;;;0.67;;
4672;SDS011;61885;53.560;9.940;2023-02-18T12:44:55;5.43;;;1.33;;
4672;SDS011;61885;53.560;9.940;2023-02-18T12:47:39;1.10;;;0.80;;
4672;SDS011;61885;53.560;9.940;2023-02-18T12:50:31;4.10;;;0.93;;
4672;SDS011;61885;53.560;9.940;2023-02-18T12:53:29;2.83;;;0.93;;
4672;SDS011;61885;53.560;9.940;2023-02-18T12:59:19;5.83;;;1.47;;
4672;SDS011;61885;53.560;9.940;2023-02-18T13:02:21;3.47;;;1.00;;
4672;SDS011;61885;53.560;9.940;2023-02-18T13:05:09;8.53;;;1.37;;
4672;SDS011;61885;53.560;9.940;2023-02-18T13:08:02;4.57;;;1.80;;
4672;SDS011;61885;53.560;9.940;2023-02-18T13:10:44;8.70;;;1.87;;
4672;SDS011;61885;53.560;9.940;2023-02-18T13:13:27;20.50;;;1.90;;
4672;SDS011;61885;53.560;9.940;2023-02-18T13:16:07;4.90;;;1.17;;
4672;SDS011;61885;53.560;9.940;2023-02-18T13:18:39;3.73;;;1.63;;
4672;SDS011;61885;53.560;9.940;2023-02-18T13:21:15;8.40;;;1.70;;
4672;SDS011;61885;53.560;9.940;2023-02-18T13:23:47;1.87;;;1.67;;
4672;SDS011;61885;53.560;9.940;2023-02-18T13:26:21;7.40;;;1.30;;
4672;SDS011;61885;53.560;9.940;2023-02-18T13:29:02;8.17;;;1.40;;
4672;SDS011;61885;53.560;9.940;2023-02-18T13:31:50;12.57;;;1.83;;
4672;SDS011;61885;53.560;9.940;2023-02-18T13:34:30;4.80;;;1.23;;
4672;SDS011;61885;53.560;9.940;2023-02-18T13:37:07;7.07;;;1.70;;
4672;SDS011;61885;53.560;9.940;2023-02-18T13:39:45;2.57;;;1.33;;
4672;SDS011;61885;53.560;9.940;2023-02-18T13:42:26;14.47;;;1.83;;
4672;SDS011;61885;53.560;9.940;2023-02-18T13:47:57;14.53;;;1.37;;
4672;SDS011;61885;53.560;9.940;2023-02-18T13:53:19;5.93;;;1.50;;
4672;SDS011;61885;53.560;9.940;2023-02-18T13:55:52;15.73;;;1.77;;
4672;SDS011;61885;53.560;9.940;2023-02-18T13:58:29;9.30;;;2.23;;
4672;SDS011;61885;53.560;9.940;2023-02-18T14:01:11;8.80;;;1.37;;
4672;SDS011;61885;53.560;9.940;2023-02-18T14:03:52;10.03;;;1.57;;
4672;SDS011;61885;53.560;9.940;2023-02-18T14:06:29;12.77;;;1.20;;
4672;SDS011;61885;53.560;9.940;2023-02-18T14:15:28;16.10;;;1.67;;
4672;SDS011;61885;53.560;9.940;2023-02-18T14:18:23;7.63;;;1.73;;
4672;SDS011;61885;53.560;9.940;2023-02-18T14:21:20;5.97;;;1.70;;
4672;SDS011;61885;53.560;9.940;2023-02-18T14:24:04;1.43;;;1.00;;
4672;SDS011;61885;53.560;9.940;2023-02-18T14:26:36;1.43;;;0.97;;
4672;SDS011;61885;53.560;9.940;2023-02-18T14:29:13;1.93;;;0.80;;
4672;SDS011;61885;53.560;9.940;2023-02-18T14:31:50;1.40;;;1.27;;
4672;SDS011;61885;53.560;9.940;2023-02-18T14:40:46;1.17;;;1.07;;
4672;SDS011;61885;53.560;9.940;2023-02-18T14:44:01;1.20;;;1.07;;
4672;SDS011;61885;53.560;9.940;2023-02-18T14:46:45;2.37;;;1.37;;
4672;SDS011;61885;53.560;9.940;2023-02-18T14:52:18;1.43;;;1.33;;
4672;SDS011;61885;53.560;9.940;2023-02-18T14:54:57;2.70;;;2.00;;
4672;SDS011;61885;53.560;9.940;2023-02-18T14:57:31;1.30;;;1.20;;
4672;SDS011;61885;53.560;9.940;2023-02-18T15:00:13;1.93;;;1.83;;
4672;SDS011;61885;53.560;9.940;2023-02-18T15:02:46;2.60;;;2.40;;
4672;SDS011;61885;53.560;9.940;2023-02-18T15:05:18;2.73;;;2.13;;
4672;SDS011;61885;53.560;9.940;2023-02-18T15:07:58;1.93;;;1.73;;
4672;SDS011;61885;53.560;9.940;2023-02-18T15:10:37;2.70;;;1.97;;
4672;SDS011;61885;53.560;9.940;2023-02-18T15:13:13;2.03;;;1.83;;
4672;SDS011;61885;53.560;9.940;2023-02-18T15:15:46;2.77;;;1.70;;
4672;SDS011;61885;53.560;9.940;2023-02-18T15:18:26;2.47;;;2.27;;
4672;SDS011;61885;53.560;9.940;2023-02-18T15:21:00;1.77;;;1.67;;
4672;SDS011;61885;53.560;9.940;2023-02-18T15:23:36;1.50;;;1.40;;
4672;SDS011;61885;53.560;9.940;2023-02-18T15:26:10;1.57;;;1.47;;
4672;SDS011;61885;53.560;9.940;2023-02-18T15:28:50;1.70;;;1.50;;
4672;SDS011;61885;53.560;9.940;2023-02-18T15:31:35;5.13;;;2.17;;
4672;SDS011;61885;53.560;9.940;2023-02-18T15:34:23;2.30;;;1.50;;
4672;SDS011;61885;53.560;9.940;2023-02-18T15:37:01;3.63;;;1.77;;
4672;SDS011;61885;53.560;9.940;2023-02-18T15:39:34;1.20;;;1.10;;
4672;SDS011;61885;53.560;9.940;2023-02-18T15:42:08;1.10;;;1.00;;
4672;SDS011;61885;53.560;9.940;2023-02-18T15:44:45;2.27;;;1.10;;
4672;SDS011;61885;53.560;9.940;2023-02-18T15:47:18;0.93;;;0.83;;
4672;SDS011;61885;53.560;9.940;2023-02-18T15:49:52;1.23;;;0.87;;
4672;SDS011;61885;53.560;9.940;2023-02-18T15:52:25;1.67;;;1.00;;
4672;SDS011;61885;53.560;9.940;2023-02-18T15:55:02;3.57;;;1.10;;
4672;SDS011;61885;53.560;9.940;2023-02-18T15:57:40;1.10;;;0.80;;
4672;SDS011;61885;53.560;9.940;2023-02-18T16:00:13;1.13;;;1.03;;
4672;SDS011;61885;53.560;9.940;2023-02-18T16:02:50;1.37;;;1.23;;
4672;SDS011;61885;53.560;9.940;2023-02-18T16:05:23;1.60;;;1.10;;
4672;SDS011;61885;53.560;9.940;2023-02-18T16:07:59;2.20;;;1.10;;
4672;SDS011;61885;53.560;9.940;2023-02-18T16:10:41;0.90;;;0.80;;
4672;SDS011;61885;53.560;9.940;2023-02-18T16:13:16;2.40;;;1.43;;
4672;SDS011;61885;53.560;9.940;2023-02-18T16:15:48;1.23;;;0.90;;
4672;SDS011;61885;53.560;9.940;2023-02-18T16:18:21;1.90;;;1.13;;
4672;SDS011;61885;53.560;9.940;2023-02-18T16:21:01;1.23;;;1.03;;
4672;SDS011;61885;53.560;9.940;2023-02-18T16:23:43;1.23;;;1.07;;
4672;SDS011;61885;53.560;9.940;2023-02-18T16:29:34;1.30;;;1.10;;
4672;SDS011;61885;53.560;9.940;2023-02-18T16:32:11;2.23;;;1.43;;
4672;SDS011;61885;53.560;9.940;2023-02-18T16:34:44;1.63;;;1.40;;
4672;SDS011;61885;53.560;9.940;2023-02-18T16:37:30;1.50;;;1.20;;
4672;SDS011;61885;53.560;9.940;2023-02-18T16:40:19;1.33;;;1.23;;